Nearby METAR Reports

 

KEVV - Evansville, Indiana, USA
Distance from station: NNE 4mi, 7km
Updated: Wed, 01-Feb-2023 5:54am CST
Clear
Clear
 Wind from N
Wind: N 5 mph , 7 km/h
Temperature: 19°F , -7°C
Wind Chill: 12°F , -11°C
Dew Point: 12°F , -11°C
Humidity: 73%
Barometer: 30.43 inHg , 1030.5 hPa
Clouds: Clear
Visibility: 10 miles , 16 km
2023/02/01 11:54 KEVV 011154Z 36004KT 10SM CLR M07/M11 A3043 RMK AO2 SLP310 T10671111 11050 21067 51013 $
KEHR - Henderson City, Kentucky, USA
Distance from station: SSW 14mi, 22km
Updated: Wed, 01-Feb-2023 5:56am CST
Clear
Clear
 Wind from N
Wind: N 8 mph , 13 km/h
Temperature: 19°F , -7°C
Wind Chill: 9°F , -13°C
Dew Point: 12°F , -11°C
Humidity: 73%
Barometer: 30.43 inHg , 1030.5 hPa
Clouds: Clear
Visibility: 10 miles , 16 km
2023/02/01 11:56 KEHR 011156Z AUTO 36007KT 10SM CLR M07/M11 A3043 RMK AO2 SLP310 70011 T10671111 11050 21067 53010 FZRANO
 
KOWB - Owensboro/Davies, Kentucky, USA
Distance from station: SE 29mi, 46km
Updated: Wed, 01-Feb-2023 5:56am CST
Clear
Clear
 Wind from N
Wind: N 6 mph , 9 km/h
Temperature: 19°F , -7°C
Wind Chill: 11°F , -12°C
Dew Point: 16°F , -9°C
Humidity: 86%
Barometer: 30.42 inHg , 1030.1 hPa
Clouds: Clear
Visibility: 10 miles , 16 km
2023/02/01 11:56 KOWB 011156Z 01005KT 10SM CLR M07/M09 A3042 RMK AO2 SLP306 T10671094 11044 21067 53011
KCUL - Carmi Muni, Illinois, USA
Distance from station: W 31mi, 50km
Updated: Wed, 01-Feb-2023 2:15am CST
NOT Current
Clear
Clear
 Wind from calm
Wind: Calm
Temperature: 21°F , -6°C
Dew Point: 14°F , -10°C
Humidity: 74%
Barometer: 30.40 inHg , 1029.5 hPa
Clouds: Clear
Visibility: 10 miles , 16 km
2023/02/01 08:15 KCUL 010815Z AUTO 00000KT 10SM CLR M06/M10 A3040 RMK AO2
 
KHNB - Huntingburg, Indiana, USA
Distance from station: ENE 37mi, 60km
Updated: Wed, 01-Feb-2023 5:56am CST
Clear
Clear
 Wind from N
Wind: N 5 mph , 7 km/h
Temperature: 18°F , -8°C
Wind Chill: 11°F , -12°C
Dew Point: 14°F , -10°C
Humidity: 86%
Barometer: 30.42 inHg , 1030.1 hPa
Clouds: Clear
Visibility: 10 miles , 16 km
2023/02/01 11:56 KHNB 011156Z AUTO 35004KT 10SM CLR M08/M10 A3042 RMK AO2 SLP312 70001 T10781100 11056 21083 53017 FZRANO
KKY8 - Lewisport, Kentucky, USA
Distance from station: E 39mi, 62km
Updated: Wed, 01-Feb-2023 5:55am CST
Clear
Clear
 
Temperature: 21°F , -6°C
Dew Point: 18°F , -8°C
Humidity: 86%
Barometer: 30.42 inHg , 1030.1 hPa
Clouds: Clear
Visibility: 10 miles , 16 km
2023/02/01 11:55 KKY8 011155Z AUTO 10SM CLR M06/M08 A3042 RMK A01
 
KAJG - Mount Carmel, Illinois, USA
Distance from station: NNW 44mi, 71km
Updated: Wed, 01-Feb-2023 5:55am CST
Clear
Clear
 Wind from NNE
Wind: NNE 5 mph , 7 km/h
Temperature: 18°F , -8°C
Wind Chill: 11°F , -12°C
Dew Point: 9°F , -13°C
Humidity: 68%
Barometer: 30.44 inHg , 1030.8 hPa
Clouds: Clear
Visibility: 10 miles , 16 km
2023/02/01 11:55 KAJG 011155Z AUTO 02004KT 10SM CLR M08/M13 A3044 RMK AO2 T10761129 11050 21076
K2I0 - Madisonville, Kentucky, USA
Distance from station: S 45mi, 73km
Updated: Wed, 01-Feb-2023 5:55am CST
Clear
Clear
 Wind from N
Wind: N 6 mph , 9 km/h
Temperature: 21°F , -6°C
Wind Chill: 13°F , -11°C
Dew Point: 14°F , -10°C
Humidity: 74%
Barometer: 30.41 inHg , 1029.8 hPa
Clouds: Clear
Visibility: 10 miles , 16 km
2023/02/01 11:55 K2I0 011155Z AUTO 01005KT 10SM CLR M06/M10 A3041 RMK AO2 T10561096 11040 21057
Flag Counter